sensor_id;sensor_type;location;lat;lon;timestamp;P1;durP1;ratioP1;P2;durP2;ratioP2
42700;SDS011;28316;49.504;8.526;2023-07-22T00:01:00;2.80;;;1.25;;
42700;SDS011;28316;49.504;8.526;2023-07-22T00:03:26;1.40;;;0.80;;
42700;SDS011;28316;49.504;8.526;2023-07-22T00:08:47;1.80;;;1.00;;
42700;SDS011;28316;49.504;8.526;2023-07-22T00:11:14;2.80;;;1.20;;
42700;SDS011;28316;49.504;8.526;2023-07-22T00:13:40;2.65;;;1.40;;
42700;SDS011;28316;49.504;8.526;2023-07-22T00:16:08;2.03;;;0.88;;
42700;SDS011;28316;49.504;8.526;2023-07-22T00:18:35;2.53;;;1.10;;
42700;SDS011;28316;49.504;8.526;2023-07-22T00:21:01;2.03;;;1.10;;
42700;SDS011;28316;49.504;8.526;2023-07-22T00:23:27;1.38;;;1.00;;
42700;SDS011;28316;49.504;8.526;2023-07-22T00:25:53;1.88;;;1.27;;
42700;SDS011;28316;49.504;8.526;2023-07-22T00:28:19;2.65;;;1.20;;
42700;SDS011;28316;49.504;8.526;2023-07-22T00:30:44;2.17;;;1.30;;
42700;SDS011;28316;49.504;8.526;2023-07-22T00:33:10;2.10;;;1.33;;
42700;SDS011;28316;49.504;8.526;2023-07-22T00:35:36;4.20;;;1.40;;
42700;SDS011;28316;49.504;8.526;2023-07-22T00:38:02;2.33;;;1.00;;
42700;SDS011;28316;49.504;8.526;2023-07-22T00:40:28;1.02;;;0.60;;
42700;SDS011;28316;49.504;8.526;2023-07-22T00:42:57;4.97;;;1.40;;
42700;SDS011;28316;49.504;8.526;2023-07-22T00:45:24;2.75;;;1.15;;
42700;SDS011;28316;49.504;8.526;2023-07-22T00:47:50;2.58;;;0.95;;
42700;SDS011;28316;49.504;8.526;2023-07-22T00:50:15;1.65;;;1.20;;
42700;SDS011;28316;49.504;8.526;2023-07-22T00:52:42;2.22;;;1.10;;
42700;SDS011;28316;49.504;8.526;2023-07-22T00:55:07;2.10;;;0.93;;
42700;SDS011;28316;49.504;8.526;2023-07-22T00:57:34;1.63;;;1.02;;
42700;SDS011;28316;49.504;8.526;2023-07-22T01:00:01;2.30;;;0.98;;
42700;SDS011;28316;49.504;8.526;2023-07-22T01:02:27;1.95;;;1.30;;
42700;SDS011;28316;49.504;8.526;2023-07-22T01:04:54;2.33;;;0.93;;
42700;SDS011;28316;49.504;8.526;2023-07-22T01:07:19;2.05;;;1.00;;
42700;SDS011;28316;49.504;8.526;2023-07-22T01:09:45;2.63;;;1.38;;
42700;SDS011;28316;49.504;8.526;2023-07-22T01:12:11;1.50;;;1.00;;
42700;SDS011;28316;49.504;8.526;2023-07-22T01:14:39;2.22;;;1.15;;
42700;SDS011;28316;49.504;8.526;2023-07-22T01:17:07;1.65;;;1.00;;
42700;SDS011;28316;49.504;8.526;2023-07-22T01:19:35;1.52;;;1.00;;
42700;SDS011;28316;49.504;8.526;2023-07-22T01:22:05;1.83;;;1.20;;
42700;SDS011;28316;49.504;8.526;2023-07-22T01:24:35;1.98;;;1.05;;
42700;SDS011;28316;49.504;8.526;2023-07-22T01:27:03;1.83;;;1.15;;
42700;SDS011;28316;49.504;8.526;2023-07-22T01:29:33;2.55;;;1.10;;
42700;SDS011;28316;49.504;8.526;2023-07-22T01:32:00;2.42;;;1.10;;
42700;SDS011;28316;49.504;8.526;2023-07-22T01:34:25;2.47;;;1.23;;
42700;SDS011;28316;49.504;8.526;2023-07-22T01:36:51;1.15;;;0.90;;
42700;SDS011;28316;49.504;8.526;2023-07-22T01:39:19;2.55;;;1.23;;
42700;SDS011;28316;49.504;8.526;2023-07-22T01:41:45;2.85;;;1.95;;
42700;SDS011;28316;49.504;8.526;2023-07-22T01:44:11;2.85;;;1.10;;
42700;SDS011;28316;49.504;8.526;2023-07-22T01:46:37;1.70;;;0.90;;
42700;SDS011;28316;49.504;8.526;2023-07-22T01:49:06;3.72;;;1.10;;
42700;SDS011;28316;49.504;8.526;2023-07-22T01:51:38;2.40;;;0.98;;
42700;SDS011;28316;49.504;8.526;2023-07-22T01:54:07;2.00;;;1.23;;
42700;SDS011;28316;49.504;8.526;2023-07-22T01:56:35;5.43;;;0.88;;
42700;SDS011;28316;49.504;8.526;2023-07-22T01:59:04;1.52;;;0.80;;
42700;SDS011;28316;49.504;8.526;2023-07-22T02:01:31;2.47;;;1.23;;
42700;SDS011;28316;49.504;8.526;2023-07-22T02:03:57;2.58;;;1.10;;
42700;SDS011;28316;49.504;8.526;2023-07-22T02:06:23;5.55;;;1.13;;
42700;SDS011;28316;49.504;8.526;2023-07-22T02:08:49;1.63;;;0.98;;
42700;SDS011;28316;49.504;8.526;2023-07-22T02:11:15;2.38;;;1.35;;
42700;SDS011;28316;49.504;8.526;2023-07-22T02:13:42;2.47;;;1.30;;
42700;SDS011;28316;49.504;8.526;2023-07-22T02:16:08;4.55;;;1.35;;
42700;SDS011;28316;49.504;8.526;2023-07-22T02:18:37;5.75;;;1.83;;
42700;SDS011;28316;49.504;8.526;2023-07-22T02:21:03;1.77;;;1.20;;
42700;SDS011;28316;49.504;8.526;2023-07-22T02:23:28;3.88;;;1.52;;
42700;SDS011;28316;49.504;8.526;2023-07-22T02:25:54;2.20;;;1.23;;
42700;SDS011;28316;49.504;8.526;2023-07-22T02:28:20;3.97;;;1.52;;
42700;SDS011;28316;49.504;8.526;2023-07-22T02:30:48;2.53;;;1.45;;
42700;SDS011;28316;49.504;8.526;2023-07-22T02:33:17;3.63;;;1.70;;
42700;SDS011;28316;49.504;8.526;2023-07-22T02:35:43;3.88;;;1.77;;
42700;SDS011;28316;49.504;8.526;2023-07-22T02:38:10;2.83;;;1.55;;
42700;SDS011;28316;49.504;8.526;2023-07-22T02:40:36;3.13;;;1.70;;
42700;SDS011;28316;49.504;8.526;2023-07-22T02:43:02;2.25;;;1.40;;
42700;SDS011;28316;49.504;8.526;2023-07-22T02:45:29;3.28;;;1.65;;
42700;SDS011;28316;49.504;8.526;2023-07-22T02:47:55;2.55;;;1.73;;
42700;SDS011;28316;49.504;8.526;2023-07-22T02:50:21;4.28;;;2.10;;
42700;SDS011;28316;49.504;8.526;2023-07-22T02:52:47;2.95;;;2.00;;
42700;SDS011;28316;49.504;8.526;2023-07-22T02:55:16;2.85;;;1.20;;
42700;SDS011;28316;49.504;8.526;2023-07-22T02:57:46;6.55;;;2.90;;
42700;SDS011;28316;49.504;8.526;2023-07-22T03:00:13;3.90;;;1.88;;
42700;SDS011;28316;49.504;8.526;2023-07-22T03:02:50;2.78;;;1.60;;
42700;SDS011;28316;49.504;8.526;2023-07-22T03:05:26;5.10;;;1.98;;
42700;SDS011;28316;49.504;8.526;2023-07-22T03:07:56;2.67;;;1.67;;
42700;SDS011;28316;49.504;8.526;2023-07-22T03:10:23;3.60;;;1.98;;
42700;SDS011;28316;49.504;8.526;2023-07-22T03:12:54;3.92;;;2.17;;
42700;SDS011;28316;49.504;8.526;2023-07-22T03:15:21;4.35;;;2.63;;
42700;SDS011;28316;49.504;8.526;2023-07-22T03:17:50;2.83;;;1.90;;
42700;SDS011;28316;49.504;8.526;2023-07-22T03:20:17;6.32;;;2.60;;
42700;SDS011;28316;49.504;8.526;2023-07-22T03:22:44;5.25;;;2.92;;
42700;SDS011;28316;49.504;8.526;2023-07-22T03:25:11;4.90;;;2.53;;
42700;SDS011;28316;49.504;8.526;2023-07-22T03:27:39;4.78;;;2.33;;
42700;SDS011;28316;49.504;8.526;2023-07-22T03:30:05;7.22;;;2.35;;
42700;SDS011;28316;49.504;8.526;2023-07-22T03:32:35;7.55;;;3.05;;
42700;SDS011;28316;49.504;8.526;2023-07-22T03:35:01;4.63;;;2.40;;
42700;SDS011;28316;49.504;8.526;2023-07-22T03:37:28;4.45;;;2.58;;
42700;SDS011;28316;49.504;8.526;2023-07-22T03:39:54;5.53;;;2.97;;
42700;SDS011;28316;49.504;8.526;2023-07-22T03:42:20;5.63;;;2.22;;
42700;SDS011;28316;49.504;8.526;2023-07-22T03:44:46;9.25;;;2.92;;
42700;SDS011;28316;49.504;8.526;2023-07-22T03:47:12;6.43;;;3.35;;
42700;SDS011;28316;49.504;8.526;2023-07-22T03:49:38;5.78;;;3.30;;
42700;SDS011;28316;49.504;8.526;2023-07-22T03:52:03;5.57;;;3.20;;
42700;SDS011;28316;49.504;8.526;2023-07-22T03:54:30;4.75;;;2.35;;
42700;SDS011;28316;49.504;8.526;2023-07-22T03:56:55;4.10;;;2.72;;
42700;SDS011;28316;49.504;8.526;2023-07-22T03:59:21;5.07;;;3.10;;
42700;SDS011;28316;49.504;8.526;2023-07-22T04:01:47;4.60;;;2.88;;
42700;SDS011;28316;49.504;8.526;2023-07-22T04:04:12;4.53;;;2.50;;
42700;SDS011;28316;49.504;8.526;2023-07-22T04:06:38;6.53;;;3.13;;
42700;SDS011;28316;49.504;8.526;2023-07-22T04:09:04;4.55;;;2.33;;
42700;SDS011;28316;49.504;8.526;2023-07-22T04:11:30;5.07;;;2.58;;
42700;SDS011;28316;49.504;8.526;2023-07-22T04:13:55;5.32;;;2.97;;
42700;SDS011;28316;49.504;8.526;2023-07-22T04:16:21;5.28;;;2.40;;
42700;SDS011;28316;49.504;8.526;2023-07-22T04:18:47;6.10;;;2.53;;
42700;SDS011;28316;49.504;8.526;2023-07-22T04:21:13;3.15;;;1.90;;
42700;SDS011;28316;49.504;8.526;2023-07-22T04:23:38;4.30;;;2.42;;
42700;SDS011;28316;49.504;8.526;2023-07-22T04:26:04;3.88;;;1.80;;
42700;SDS011;28316;49.504;8.526;2023-07-22T04:28:32;2.60;;;1.63;;
42700;SDS011;28316;49.504;8.526;2023-07-22T04:30:59;2.80;;;1.60;;
42700;SDS011;28316;49.504;8.526;2023-07-22T04:33:25;4.45;;;2.22;;
42700;SDS011;28316;49.504;8.526;2023-07-22T04:35:53;7.90;;;2.35;;
42700;SDS011;28316;49.504;8.526;2023-07-22T04:40:50;3.30;;;2.20;;
42700;SDS011;28316;49.504;8.526;2023-07-22T04:43:15;2.83;;;1.60;;
42700;SDS011;28316;49.504;8.526;2023-07-22T04:45:43;3.55;;;2.15;;
42700;SDS011;28316;49.504;8.526;2023-07-22T04:48:12;4.50;;;2.28;;
42700;SDS011;28316;49.504;8.526;2023-07-22T04:50:47;2.97;;;1.88;;
42700;SDS011;28316;49.504;8.526;2023-07-22T04:53:13;2.60;;;1.50;;
42700;SDS011;28316;49.504;8.526;2023-07-22T04:55:39;3.70;;;2.00;;
42700;SDS011;28316;49.504;8.526;2023-07-22T04:58:06;2.53;;;1.70;;
42700;SDS011;28316;49.504;8.526;2023-07-22T05:00:32;2.78;;;1.55;;
42700;SDS011;28316;49.504;8.526;2023-07-22T05:02:58;4.25;;;1.45;;
42700;SDS011;28316;49.504;8.526;2023-07-22T05:05:25;6.00;;;2.22;;
42700;SDS011;28316;49.504;8.526;2023-07-22T05:07:51;7.20;;;2.30;;
42700;SDS011;28316;49.504;8.526;2023-07-22T05:10:17;4.22;;;2.28;;
42700;SDS011;28316;49.504;8.526;2023-07-22T05:12:44;5.00;;;2.47;;
42700;SDS011;28316;49.504;8.526;2023-07-22T05:15:11;2.97;;;1.70;;
42700;SDS011;28316;49.504;8.526;2023-07-22T05:17:38;3.15;;;1.63;;
42700;SDS011;28316;49.504;8.526;2023-07-22T05:20:04;4.43;;;1.90;;
42700;SDS011;28316;49.504;8.526;2023-07-22T05:22:31;3.72;;;1.80;;
42700;SDS011;28316;49.504;8.526;2023-07-22T05:24:58;4.80;;;1.65;;
42700;SDS011;28316;49.504;8.526;2023-07-22T05:27:24;4.05;;;2.10;;
42700;SDS011;28316;49.504;8.526;2023-07-22T05:29:50;6.70;;;2.65;;
42700;SDS011;28316;49.504;8.526;2023-07-22T05:32:16;6.22;;;1.90;;
42700;SDS011;28316;49.504;8.526;2023-07-22T05:34:41;3.63;;;2.25;;
42700;SDS011;28316;49.504;8.526;2023-07-22T05:37:07;4.35;;;2.28;;
42700;SDS011;28316;49.504;8.526;2023-07-22T05:39:33;6.40;;;2.78;;
42700;SDS011;28316;49.504;8.526;2023-07-22T05:41:58;3.65;;;1.80;;
42700;SDS011;28316;49.504;8.526;2023-07-22T05:44:24;2.92;;;1.73;;
42700;SDS011;28316;49.504;8.526;2023-07-22T05:46:50;7.45;;;1.85;;
42700;SDS011;28316;49.504;8.526;2023-07-22T05:49:16;3.08;;;1.67;;
42700;SDS011;28316;49.504;8.526;2023-07-22T05:51:41;2.78;;;1.60;;
42700;SDS011;28316;49.504;8.526;2023-07-22T05:54:07;3.90;;;1.45;;
42700;SDS011;28316;49.504;8.526;2023-07-22T05:56:33;5.65;;;1.55;;
42700;SDS011;28316;49.504;8.526;2023-07-22T05:58:59;3.20;;;1.55;;
42700;SDS011;28316;49.504;8.526;2023-07-22T06:01:25;2.83;;;1.90;;
42700;SDS011;28316;49.504;8.526;2023-07-22T06:03:50;3.58;;;1.63;;
42700;SDS011;28316;49.504;8.526;2023-07-22T06:06:17;2.78;;;1.17;;
42700;SDS011;28316;49.504;8.526;2023-07-22T06:08:43;2.17;;;1.40;;
42700;SDS011;28316;49.504;8.526;2023-07-22T06:11:09;6.60;;;1.88;;
42700;SDS011;28316;49.504;8.526;2023-07-22T06:13:35;2.60;;;1.60;;
42700;SDS011;28316;49.504;8.526;2023-07-22T06:16:00;4.13;;;2.00;;
42700;SDS011;28316;49.504;8.526;2023-07-22T06:18:26;2.47;;;1.30;;
42700;SDS011;28316;49.504;8.526;2023-07-22T06:20:52;2.25;;;1.30;;
42700;SDS011;28316;49.504;8.526;2023-07-22T06:23:18;4.55;;;1.92;;
42700;SDS011;28316;49.504;8.526;2023-07-22T06:25:43;4.07;;;1.40;;
42700;SDS011;28316;49.504;8.526;2023-07-22T06:28:09;3.10;;;1.60;;
42700;SDS011;28316;49.504;8.526;2023-07-22T06:30:35;2.38;;;1.55;;
42700;SDS011;28316;49.504;8.526;2023-07-22T06:33:00;3.50;;;1.48;;
42700;SDS011;28316;49.504;8.526;2023-07-22T06:35:26;2.33;;;1.55;;
42700;SDS011;28316;49.504;8.526;2023-07-22T06:37:52;3.60;;;1.50;;
42700;SDS011;28316;49.504;8.526;2023-07-22T06:40:18;6.65;;;1.80;;
42700;SDS011;28316;49.504;8.526;2023-07-22T06:42:44;2.53;;;1.52;;
42700;SDS011;28316;49.504;8.526;2023-07-22T06:45:10;1.85;;;1.02;;
42700;SDS011;28316;49.504;8.526;2023-07-22T06:47:35;3.10;;;1.55;;
42700;SDS011;28316;49.504;8.526;2023-07-22T06:50:02;2.13;;;1.15;;
42700;SDS011;28316;49.504;8.526;2023-07-22T06:52:29;4.72;;;1.67;;
42700;SDS011;28316;49.504;8.526;2023-07-22T06:54:56;3.60;;;1.83;;
42700;SDS011;28316;49.504;8.526;2023-07-22T06:57:22;4.50;;;1.70;;
42700;SDS011;28316;49.504;8.526;2023-07-22T06:59:48;5.45;;;1.85;;
42700;SDS011;28316;49.504;8.526;2023-07-22T07:02:16;4.53;;;1.48;;
42700;SDS011;28316;49.504;8.526;2023-07-22T07:04:41;4.05;;;1.77;;
42700;SDS011;28316;49.504;8.526;2023-07-22T07:07:07;4.13;;;1.73;;
42700;SDS011;28316;49.504;8.526;2023-07-22T07:09:34;5.95;;;2.00;;
42700;SDS011;28316;49.504;8.526;2023-07-22T07:12:00;4.60;;;1.70;;
42700;SDS011;28316;49.504;8.526;2023-07-22T07:14:26;3.42;;;1.77;;
42700;SDS011;28316;49.504;8.526;2023-07-22T07:16:52;6.35;;;1.65;;
42700;SDS011;28316;49.504;8.526;2023-07-22T07:19:18;4.70;;;1.92;;
42700;SDS011;28316;49.504;8.526;2023-07-22T07:21:43;3.65;;;2.20;;
42700;SDS011;28316;49.504;8.526;2023-07-22T07:24:09;3.85;;;1.90;;
42700;SDS011;28316;49.504;8.526;2023-07-22T07:26:35;7.45;;;1.80;;
42700;SDS011;28316;49.504;8.526;2023-07-22T07:29:00;7.97;;;3.42;;
42700;SDS011;28316;49.504;8.526;2023-07-22T07:31:26;4.72;;;2.40;;
42700;SDS011;28316;49.504;8.526;2023-07-22T07:33:52;5.65;;;2.35;;
42700;SDS011;28316;49.504;8.526;2023-07-22T07:36:18;4.18;;;2.17;;
42700;SDS011;28316;49.504;8.526;2023-07-22T07:38:44;3.35;;;2.08;;
42700;SDS011;28316;49.504;8.526;2023-07-22T07:41:09;5.47;;;1.42;;
42700;SDS011;28316;49.504;8.526;2023-07-22T07:43:39;5.97;;;1.63;;
42700;SDS011;28316;49.504;8.526;2023-07-22T07:48:55;3.05;;;1.48;;
42700;SDS011;28316;49.504;8.526;2023-07-22T07:51:24;2.65;;;1.23;;
42700;SDS011;28316;49.504;8.526;2023-07-22T07:53:52;3.47;;;1.88;;
42700;SDS011;28316;49.504;8.526;2023-07-22T07:56:19;2.85;;;1.10;;
42700;SDS011;28316;49.504;8.526;2023-07-22T07:58:46;3.17;;;1.50;;
42700;SDS011;28316;49.504;8.526;2023-07-22T08:01:14;3.47;;;1.67;;
42700;SDS011;28316;49.504;8.526;2023-07-22T08:03:41;5.72;;;1.60;;
42700;SDS011;28316;49.504;8.526;2023-07-22T08:06:07;3.25;;;1.20;;
42700;SDS011;28316;49.504;8.526;2023-07-22T08:08:34;2.35;;;1.42;;
42700;SDS011;28316;49.504;8.526;2023-07-22T08:11:05;3.22;;;1.45;;
42700;SDS011;28316;49.504;8.526;2023-07-22T08:13:36;3.03;;;1.60;;
42700;SDS011;28316;49.504;8.526;2023-07-22T08:16:03;2.70;;;1.15;;
42700;SDS011;28316;49.504;8.526;2023-07-22T08:18:31;3.45;;;1.27;;
42700;SDS011;28316;49.504;8.526;2023-07-22T08:20:58;3.65;;;1.15;;
42700;SDS011;28316;49.504;8.526;2023-07-22T08:23:27;4.95;;;1.98;;
42700;SDS011;28316;49.504;8.526;2023-07-22T08:25:53;4.03;;;1.15;;
42700;SDS011;28316;49.504;8.526;2023-07-22T08:28:19;5.53;;;1.58;;
42700;SDS011;28316;49.504;8.526;2023-07-22T08:30:45;1.35;;;0.85;;
42700;SDS011;28316;49.504;8.526;2023-07-22T08:33:13;3.67;;;1.05;;
42700;SDS011;28316;49.504;8.526;2023-07-22T08:35:40;3.55;;;1.45;;
42700;SDS011;28316;49.504;8.526;2023-07-22T08:38:06;3.53;;;1.38;;
42700;SDS011;28316;49.504;8.526;2023-07-22T08:40:37;2.10;;;1.00;;
42700;SDS011;28316;49.504;8.526;2023-07-22T08:43:05;2.55;;;1.30;;
42700;SDS011;28316;49.504;8.526;2023-07-22T08:45:34;1.27;;;0.80;;
42700;SDS011;28316;49.504;8.526;2023-07-22T08:48:10;2.13;;;1.13;;
42700;SDS011;28316;49.504;8.526;2023-07-22T08:50:52;4.65;;;1.25;;
42700;SDS011;28316;49.504;8.526;2023-07-22T08:53:28;3.60;;;1.42;;
42700;SDS011;28316;49.504;8.526;2023-07-22T08:55:55;2.88;;;1.42;;
42700;SDS011;28316;49.504;8.526;2023-07-22T08:58:21;1.63;;;1.00;;
42700;SDS011;28316;49.504;8.526;2023-07-22T09:00:49;3.20;;;1.05;;
42700;SDS011;28316;49.504;8.526;2023-07-22T09:03:15;3.05;;;1.50;;
42700;SDS011;28316;49.504;8.526;2023-07-22T09:05:42;2.35;;;1.20;;
42700;SDS011;28316;49.504;8.526;2023-07-22T09:08:08;2.45;;;1.40;;
42700;SDS011;28316;49.504;8.526;2023-07-22T09:10:34;2.85;;;1.10;;
42700;SDS011;28316;49.504;8.526;2023-07-22T09:13:02;2.88;;;1.42;;
42700;SDS011;28316;49.504;8.526;2023-07-22T09:15:28;1.80;;;1.05;;
42700;SDS011;28316;49.504;8.526;2023-07-22T09:17:54;1.92;;;1.08;;
42700;SDS011;28316;49.504;8.526;2023-07-22T09:20:20;2.55;;;1.40;;
42700;SDS011;28316;49.504;8.526;2023-07-22T09:22:48;1.73;;;1.27;;
42700;SDS011;28316;49.504;8.526;2023-07-22T09:25:16;3.65;;;1.30;;
42700;SDS011;28316;49.504;8.526;2023-07-22T09:27:43;2.00;;;1.20;;
42700;SDS011;28316;49.504;8.526;2023-07-22T09:30:26;2.38;;;1.23;;
42700;SDS011;28316;49.504;8.526;2023-07-22T09:33:00;3.38;;;1.33;;
42700;SDS011;28316;49.504;8.526;2023-07-22T09:35:49;2.08;;;0.95;;
42700;SDS011;28316;49.504;8.526;2023-07-22T09:38:22;6.25;;;1.73;;
42700;SDS011;28316;49.504;8.526;2023-07-22T09:40:49;2.42;;;1.15;;
42700;SDS011;28316;49.504;8.526;2023-07-22T09:43:15;4.68;;;1.00;;
42700;SDS011;28316;49.504;8.526;2023-07-22T09:45:41;2.80;;;1.10;;
42700;SDS011;28316;49.504;8.526;2023-07-22T09:48:11;2.88;;;1.58;;
42700;SDS011;28316;49.504;8.526;2023-07-22T09:50:37;2.30;;;1.38;;
42700;SDS011;28316;49.504;8.526;2023-07-22T09:53:03;2.60;;;1.27;;
42700;SDS011;28316;49.504;8.526;2023-07-22T09:55:30;2.42;;;1.02;;
42700;SDS011;28316;49.504;8.526;2023-07-22T09:58:04;1.63;;;0.90;;
42700;SDS011;28316;49.504;8.526;2023-07-22T10:00:36;2.97;;;0.80;;
42700;SDS011;28316;49.504;8.526;2023-07-22T10:03:02;6.07;;;0.88;;
42700;SDS011;28316;49.504;8.526;2023-07-22T10:05:34;1.80;;;0.85;;
42700;SDS011;28316;49.504;8.526;2023-07-22T10:08:01;2.42;;;0.93;;
42700;SDS011;28316;49.504;8.526;2023-07-22T10:10:31;2.55;;;1.10;;
42700;SDS011;28316;49.504;8.526;2023-07-22T10:13:00;2.38;;;0.90;;
42700;SDS011;28316;49.504;8.526;2023-07-22T10:15:28;2.60;;;0.95;;
42700;SDS011;28316;49.504;8.526;2023-07-22T10:17:56;2.42;;;1.08;;
42700;SDS011;28316;49.504;8.526;2023-07-22T10:20:22;2.58;;;1.10;;
42700;SDS011;28316;49.504;8.526;2023-07-22T10:22:49;2.28;;;1.20;;
42700;SDS011;28316;49.504;8.526;2023-07-22T10:25:16;5.32;;;1.90;;
42700;SDS011;28316;49.504;8.526;2023-07-22T10:27:45;3.08;;;1.00;;
42700;SDS011;28316;49.504;8.526;2023-07-22T10:30:13;2.70;;;1.17;;
42700;SDS011;28316;49.504;8.526;2023-07-22T10:32:43;5.93;;;2.20;;
42700;SDS011;28316;49.504;8.526;2023-07-22T10:40:46;2.25;;;1.20;;
42700;SDS011;28316;49.504;8.526;2023-07-22T10:43:17;2.20;;;1.10;;
42700;SDS011;28316;49.504;8.526;2023-07-22T10:45:55;1.75;;;0.80;;
42700;SDS011;28316;49.504;8.526;2023-07-22T10:48:27;4.22;;;0.90;;
42700;SDS011;28316;49.504;8.526;2023-07-22T10:51:04;3.53;;;1.10;;
42700;SDS011;28316;49.504;8.526;2023-07-22T10:53:42;3.50;;;1.23;;
42700;SDS011;28316;49.504;8.526;2023-07-22T10:56:19;2.22;;;1.13;;
42700;SDS011;28316;49.504;8.526;2023-07-22T11:14:34;2.70;;;1.20;;
42700;SDS011;28316;49.504;8.526;2023-07-22T11:17:09;2.88;;;1.05;;
42700;SDS011;28316;49.504;8.526;2023-07-22T11:19:36;1.38;;;0.80;;
42700;SDS011;28316;49.504;8.526;2023-07-22T11:22:02;1.92;;;1.00;;
42700;SDS011;28316;49.504;8.526;2023-07-22T11:24:31;3.38;;;0.95;;
42700;SDS011;28316;49.504;8.526;2023-07-22T11:27:02;2.00;;;0.73;;
42700;SDS011;28316;49.504;8.526;2023-07-22T11:29:30;2.25;;;1.05;;
42700;SDS011;28316;49.504;8.526;2023-07-22T11:31:56;3.13;;;1.48;;
42700;SDS011;28316;49.504;8.526;2023-07-22T11:34:23;3.03;;;1.05;;
42700;SDS011;28316;49.504;8.526;2023-07-22T11:36:50;5.03;;;1.50;;
42700;SDS011;28316;49.504;8.526;2023-07-22T11:39:18;1.90;;;1.15;;
42700;SDS011;28316;49.504;8.526;2023-07-22T11:41:47;2.25;;;1.10;;
42700;SDS011;28316;49.504;8.526;2023-07-22T11:44:15;1.08;;;0.80;;
42700;SDS011;28316;49.504;8.526;2023-07-22T11:46:54;2.15;;;1.10;;
42700;SDS011;28316;49.504;8.526;2023-07-22T11:51:56;5.18;;;1.45;;
42700;SDS011;28316;49.504;8.526;2023-07-22T11:54:27;5.05;;;1.25;;
42700;SDS011;28316;49.504;8.526;2023-07-22T11:56:55;2.15;;;1.00;;
42700;SDS011;28316;49.504;8.526;2023-07-22T12:02:22;3.58;;;1.40;;
42700;SDS011;28316;49.504;8.526;2023-07-22T12:09:55;1.17;;;0.82;;
42700;SDS011;28316;49.504;8.526;2023-07-22T12:12:43;0.90;;;0.63;;
42700;SDS011;28316;49.504;8.526;2023-07-22T12:15:18;1.80;;;0.85;;
42700;SDS011;28316;49.504;8.526;2023-07-22T12:17:56;2.30;;;1.08;;
42700;SDS011;28316;49.504;8.526;2023-07-22T12:20:29;2.03;;;0.88;;
42700;SDS011;28316;49.504;8.526;2023-07-22T12:22:58;2.20;;;0.90;;
42700;SDS011;28316;49.504;8.526;2023-07-22T12:25:24;1.77;;;0.90;;
42700;SDS011;28316;49.504;8.526;2023-07-22T12:27:51;2.72;;;1.20;;
42700;SDS011;28316;49.504;8.526;2023-07-22T12:30:17;3.90;;;1.10;;
42700;SDS011;28316;49.504;8.526;2023-07-22T12:32:43;2.08;;;1.08;;
42700;SDS011;28316;49.504;8.526;2023-07-22T12:35:09;2.90;;;1.05;;
42700;SDS011;28316;49.504;8.526;2023-07-22T12:37:35;2.67;;;1.27;;
42700;SDS011;28316;49.504;8.526;2023-07-22T12:40:02;4.07;;;1.13;;
42700;SDS011;28316;49.504;8.526;2023-07-22T12:42:33;2.25;;;1.05;;
42700;SDS011;28316;49.504;8.526;2023-07-22T12:45:00;7.25;;;1.65;;
42700;SDS011;28316;49.504;8.526;2023-07-22T12:47:27;2.05;;;0.82;;
42700;SDS011;28316;49.504;8.526;2023-07-22T12:49:52;3.50;;;0.88;;
42700;SDS011;28316;49.504;8.526;2023-07-22T12:52:18;5.05;;;1.23;;
42700;SDS011;28316;49.504;8.526;2023-07-22T12:54:44;1.65;;;0.70;;
42700;SDS011;28316;49.504;8.526;2023-07-22T12:57:10;2.70;;;1.27;;
42700;SDS011;28316;49.504;8.526;2023-07-22T12:59:36;1.38;;;1.00;;
42700;SDS011;28316;49.504;8.526;2023-07-22T13:02:01;1.70;;;0.90;;
42700;SDS011;28316;49.504;8.526;2023-07-22T13:04:27;2.97;;;0.80;;
42700;SDS011;28316;49.504;8.526;2023-07-22T13:06:53;3.03;;;0.98;;
42700;SDS011;28316;49.504;8.526;2023-07-22T13:09:19;1.33;;;0.90;;
42700;SDS011;28316;49.504;8.526;2023-07-22T13:11:45;2.17;;;0.90;;
42700;SDS011;28316;49.504;8.526;2023-07-22T13:14:11;1.85;;;0.88;;
42700;SDS011;28316;49.504;8.526;2023-07-22T13:16:37;1.42;;;0.77;;
42700;SDS011;28316;49.504;8.526;2023-07-22T13:19:03;3.88;;;1.20;;
42700;SDS011;28316;49.504;8.526;2023-07-22T13:21:29;4.55;;;1.20;;
42700;SDS011;28316;49.504;8.526;2023-07-22T13:23:55;4.50;;;1.23;;
42700;SDS011;28316;49.504;8.526;2023-07-22T13:26:21;2.47;;;1.02;;
42700;SDS011;28316;49.504;8.526;2023-07-22T13:28:46;2.67;;;1.10;;
42700;SDS011;28316;49.504;8.526;2023-07-22T13:31:12;4.07;;;1.20;;
42700;SDS011;28316;49.504;8.526;2023-07-22T13:33:38;5.38;;;1.15;;
42700;SDS011;28316;49.504;8.526;2023-07-22T13:36:04;1.85;;;1.33;;
42700;SDS011;28316;49.504;8.526;2023-07-22T13:38:31;3.45;;;1.00;;
42700;SDS011;28316;49.504;8.526;2023-07-22T13:40:57;2.65;;;0.95;;
42700;SDS011;28316;49.504;8.526;2023-07-22T13:43:23;1.98;;;1.02;;
42700;SDS011;28316;49.504;8.526;2023-07-22T13:45:48;4.18;;;1.35;;
42700;SDS011;28316;49.504;8.526;2023-07-22T13:48:14;2.15;;;0.95;;
42700;SDS011;28316;49.504;8.526;2023-07-22T13:50:40;3.30;;;1.27;;
42700;SDS011;28316;49.504;8.526;2023-07-22T13:53:07;2.38;;;1.30;;
42700;SDS011;28316;49.504;8.526;2023-07-22T13:55:32;2.20;;;0.90;;
42700;SDS011;28316;49.504;8.526;2023-07-22T13:57:58;2.15;;;0.90;;
42700;SDS011;28316;49.504;8.526;2023-07-22T14:00:24;2.60;;;1.00;;
42700;SDS011;28316;49.504;8.526;2023-07-22T14:02:50;3.17;;;1.25;;
42700;SDS011;28316;49.504;8.526;2023-07-22T14:05:15;1.95;;;0.90;;
42700;SDS011;28316;49.504;8.526;2023-07-22T14:07:41;3.38;;;1.23;;
42700;SDS011;28316;49.504;8.526;2023-07-22T14:10:07;3.75;;;1.17;;
42700;SDS011;28316;49.504;8.526;2023-07-22T14:12:34;2.80;;;1.00;;
42700;SDS011;28316;49.504;8.526;2023-07-22T14:15:00;3.47;;;1.10;;
42700;SDS011;28316;49.504;8.526;2023-07-22T14:17:26;1.73;;;0.82;;
42700;SDS011;28316;49.504;8.526;2023-07-22T14:19:52;1.55;;;0.80;;
42700;SDS011;28316;49.504;8.526;2023-07-22T14:22:18;2.70;;;1.17;;
42700;SDS011;28316;49.504;8.526;2023-07-22T14:24:43;1.70;;;0.80;;
42700;SDS011;28316;49.504;8.526;2023-07-22T14:27:09;2.45;;;1.00;;
42700;SDS011;28316;49.504;8.526;2023-07-22T14:29:35;2.80;;;0.88;;
42700;SDS011;28316;49.504;8.526;2023-07-22T14:32:00;1.70;;;0.85;;
42700;SDS011;28316;49.504;8.526;2023-07-22T14:34:26;2.72;;;0.90;;
42700;SDS011;28316;49.504;8.526;2023-07-22T14:36:52;1.67;;;0.90;;
42700;SDS011;28316;49.504;8.526;2023-07-22T14:39:18;1.42;;;0.85;;
42700;SDS011;28316;49.504;8.526;2023-07-22T14:41:43;2.08;;;0.93;;
42700;SDS011;28316;49.504;8.526;2023-07-22T14:44:09;5.68;;;1.40;;
42700;SDS011;28316;49.504;8.526;2023-07-22T14:46:35;1.30;;;0.77;;
42700;SDS011;28316;49.504;8.526;2023-07-22T14:49:01;2.17;;;1.30;;
42700;SDS011;28316;49.504;8.526;2023-07-22T14:51:28;2.10;;;0.90;;
42700;SDS011;28316;49.504;8.526;2023-07-22T14:53:54;2.67;;;1.23;;
42700;SDS011;28316;49.504;8.526;2023-07-22T14:56:20;3.03;;;1.23;;
42700;SDS011;28316;49.504;8.526;2023-07-22T14:58:46;5.35;;;1.30;;
42700;SDS011;28316;49.504;8.526;2023-07-22T15:01:11;2.03;;;1.02;;
42700;SDS011;28316;49.504;8.526;2023-07-22T15:03:37;2.63;;;1.10;;
42700;SDS011;28316;49.504;8.526;2023-07-22T15:06:04;1.92;;;1.10;;
42700;SDS011;28316;49.504;8.526;2023-07-22T15:08:30;2.65;;;1.08;;
42700;SDS011;28316;49.504;8.526;2023-07-22T15:10:56;3.00;;;1.50;;
42700;SDS011;28316;49.504;8.526;2023-07-22T15:13:22;5.65;;;1.65;;
42700;SDS011;28316;49.504;8.526;2023-07-22T15:15:48;3.60;;;1.02;;
42700;SDS011;28316;49.504;8.526;2023-07-22T15:18:13;3.22;;;1.58;;
42700;SDS011;28316;49.504;8.526;2023-07-22T15:20:39;2.72;;;1.00;;
42700;SDS011;28316;49.504;8.526;2023-07-22T15:23:05;1.83;;;0.93;;
42700;SDS011;28316;49.504;8.526;2023-07-22T15:25:32;2.72;;;1.17;;
42700;SDS011;28316;49.504;8.526;2023-07-22T15:27:58;3.10;;;1.23;;